createdAt,value
2016-05-22T00:00:21.938Z,0
2016-05-22T00:01:21.940Z,0
2016-05-22T00:02:21.787Z,0
2016-05-22T00:03:21.946Z,0
2016-05-22T00:04:21.792Z,0
2016-05-22T00:05:21.795Z,0
2016-05-22T00:06:21.954Z,0
2016-05-22T00:07:21.972Z,0
2016-05-22T00:08:21.976Z,0
2016-05-22T00:09:21.978Z,0
2016-05-22T00:10:21.980Z,0
2016-05-22T00:11:21.796Z,0
2016-05-22T00:12:22.423Z,0
2016-05-22T00:13:22.019Z,0
2016-05-22T00:14:22.788Z,0
2016-05-22T00:15:22.009Z,0
2016-05-22T00:16:21.872Z,0
2016-05-22T00:17:22.030Z,0
2016-05-22T00:18:22.048Z,0
2016-05-22T00:19:21.880Z,0
2016-05-22T00:20:21.897Z,0
2016-05-22T00:21:21.744Z,0
2016-05-22T00:22:21.903Z,0
2016-05-22T00:23:22.077Z,0
2016-05-22T00:24:22.112Z,0
2016-05-22T00:25:22.161Z,0
2016-05-22T00:26:22.101Z,0
2016-05-22T00:27:22.839Z,0
2016-05-22T00:28:22.122Z,0
2016-05-22T00:29:21.985Z,0
2016-05-22T00:30:22.112Z,0
2016-05-22T00:31:22.130Z,0
2016-05-22T00:32:22.133Z,0
2016-05-22T00:33:22.151Z,0
2016-05-22T00:34:21.982Z,0
2016-05-22T00:35:22.157Z,0
2016-05-22T00:36:22.176Z,0
2016-05-22T00:37:22.162Z,0
2016-05-22T00:38:22.009Z,0
2016-05-22T00:39:22.184Z,0
2016-05-22T00:40:22.186Z,0
2016-05-22T00:41:22.173Z,0
2016-05-22T00:42:22.926Z,0
2016-05-22T00:43:22.194Z,0
2016-05-22T00:44:22.198Z,0
2016-05-22T00:45:22.231Z,0
2016-05-22T00:46:22.248Z,0
2016-05-22T00:47:22.081Z,0
2016-05-22T00:48:22.083Z,0
2016-05-22T00:49:22.241Z,0
2016-05-22T00:50:22.259Z,0
2016-05-22T00:51:22.247Z,0
2016-05-22T00:52:22.250Z,0
2016-05-22T00:53:22.111Z,0
2016-05-22T00:54:22.270Z,0
2016-05-22T00:55:22.273Z,0
2016-05-22T00:56:22.291Z,0
2016-05-22T00:57:22.466Z,0
2016-05-22T00:58:22.438Z,0
2016-05-22T00:59:22.159Z,0
2016-05-22T01:00:22.005Z,0
2016-05-22T01:01:22.321Z,0
2016-05-22T01:02:22.323Z,0
2016-05-22T01:03:22.169Z,0
2016-05-22T01:04:22.329Z,0
2016-05-22T01:05:22.174Z,0
2016-05-22T01:06:22.349Z,0
2016-05-22T01:07:22.352Z,0
2016-05-22T01:08:22.371Z,0
2016-05-22T01:09:22.217Z,0
2016-05-22T01:10:22.063Z,0
2016-05-22T01:11:22.223Z,0
2016-05-22T01:12:22.600Z,0
2016-05-22T01:13:22.400Z,0
2016-05-22T01:14:22.403Z,0
2016-05-22T01:15:22.420Z,0
2016-05-22T01:16:22.424Z,0
2016-05-22T01:17:22.270Z,0
2016-05-22T01:18:22.428Z,0
2016-05-22T01:19:22.431Z,0
2016-05-22T01:20:22.434Z,0
2016-05-22T01:21:22.453Z,0
2016-05-22T01:22:22.456Z,0
2016-05-22T01:23:22.302Z,0
2016-05-22T01:24:22.305Z,0
2016-05-22T01:25:22.307Z,0
2016-05-22T01:26:22.325Z,0
2016-05-22T01:27:23.094Z,0
2016-05-22T01:28:22.330Z,0
2016-05-22T01:29:22.489Z,0
2016-05-22T01:30:22.351Z,0
2016-05-22T01:31:22.510Z,0
2016-05-22T01:32:22.357Z,0
2016-05-22T01:33:22.360Z,0
2016-05-22T01:34:22.377Z,0
2016-05-22T01:35:22.568Z,0
2016-05-22T01:36:22.540Z,0
2016-05-22T01:37:22.543Z,0
2016-05-22T01:38:22.545Z,0
2016-05-22T01:39:22.548Z,0
2016-05-22T01:40:22.581Z,0
2016-05-22T01:41:22.413Z,0
2016-05-22T01:42:22.618Z,0
2016-05-22T01:43:22.574Z,0
2016-05-22T01:44:22.592Z,0
2016-05-22T01:45:22.595Z,0
2016-05-22T01:46:22.614Z,0
2016-05-22T01:47:22.304Z,0
2016-05-22T01:48:22.462Z,0
2016-05-22T01:49:22.637Z,0
2016-05-22T01:50:22.625Z,0
2016-05-22T01:51:22.642Z,0
2016-05-22T01:52:22.536Z,0
2016-05-22T01:53:22.694Z,0
2016-05-22T01:54:22.339Z,0
2016-05-22T01:55:22.497Z,0
2016-05-22T01:56:22.656Z,0
2016-05-22T01:57:22.361Z,0
2016-05-22T01:58:22.989Z,0
2016-05-22T01:59:22.695Z,0
2016-05-22T02:00:22.698Z,0
2016-05-22T02:01:22.544Z,0
2016-05-22T02:02:22.703Z,0
2016-05-22T02:03:22.705Z,0
2016-05-22T02:04:22.741Z,0
2016-05-22T02:05:22.727Z,0
2016-05-22T02:06:22.588Z,0
2016-05-22T02:07:22.733Z,0
2016-05-22T02:08:22.282Z,0
2016-05-22T02:09:22.754Z,0
2016-05-22T02:10:22.599Z,0
2016-05-22T02:11:22.759Z,0
2016-05-22T02:12:22.949Z,0
2016-05-22T02:13:22.780Z,0
2016-05-22T02:14:22.782Z,0
2016-05-22T02:15:22.801Z,0
2016-05-22T02:16:22.820Z,0
2016-05-22T02:17:22.790Z,0
2016-05-22T02:18:22.809Z,0
2016-05-22T02:19:22.828Z,0
2016-05-22T02:20:22.831Z,0
2016-05-22T02:21:22.520Z,0
2016-05-22T02:22:22.836Z,0
2016-05-22T02:23:22.838Z,0
2016-05-22T02:24:22.716Z,0
2016-05-22T02:25:22.859Z,0
2016-05-22T02:26:22.722Z,0
2016-05-22T02:27:22.786Z,0
2016-05-22T02:28:22.867Z,0
2016-05-22T02:29:22.730Z,0
2016-05-22T02:30:22.747Z,0
2016-05-22T02:31:22.891Z,0
2016-05-22T02:32:22.909Z,0
2016-05-22T02:33:22.912Z,0
2016-05-22T02:34:22.774Z,0
2016-05-22T02:35:22.917Z,0
2016-05-22T02:36:22.779Z,0
2016-05-22T02:37:22.922Z,0
2016-05-22T02:38:22.941Z,0
2016-05-22T02:39:22.960Z,0
2016-05-22T02:40:22.946Z,0
2016-05-22T02:41:22.496Z,0
2016-05-22T02:42:22.999Z,0
2016-05-22T02:43:22.829Z,0
2016-05-22T02:44:22.972Z,0
2016-05-22T02:45:22.976Z,0
2016-05-22T02:46:22.837Z,0
2016-05-22T02:47:22.840Z,0
2016-05-22T02:48:23.015Z,0
2016-05-22T02:49:23.001Z,0
2016-05-22T02:50:23.020Z,0
2016-05-22T02:51:22.726Z,0
2016-05-22T02:52:23.025Z,0
2016-05-22T02:53:22.887Z,0
2016-05-22T02:54:23.031Z,0
2016-05-22T02:55:23.033Z,0
2016-05-22T02:56:22.895Z,0
2016-05-22T02:57:23.383Z,0
2016-05-22T02:58:23.088Z,0
2016-05-22T02:59:23.075Z,0
2016-05-22T03:00:23.078Z,0
2016-05-22T03:01:23.097Z,0
2016-05-22T03:02:37.052Z,0
2016-05-22T03:03:23.101Z,0
2016-05-22T03:04:23.105Z,0
2016-05-22T03:05:23.107Z,0
2016-05-22T03:06:23.110Z,0
2016-05-22T03:07:22.972Z,0
2016-05-22T03:08:22.975Z,0
2016-05-22T03:09:22.977Z,0
2016-05-22T03:10:22.979Z,0
2016-05-22T03:11:23.154Z,0
2016-05-22T03:12:23.454Z,0
2016-05-22T03:13:23.019Z,0
2016-05-22T03:14:23.006Z,0
2016-05-22T03:15:23.181Z,0
2016-05-22T03:16:23.043Z,0
2016-05-22T03:17:23.045Z,0
2016-05-22T03:18:23.190Z,0
2016-05-22T03:19:23.051Z,0
2016-05-22T03:20:23.210Z,0
2016-05-22T03:21:23.056Z,0
2016-05-22T03:22:23.231Z,0
2016-05-22T03:23:23.078Z,0
2016-05-22T03:24:23.236Z,0
2016-05-22T03:25:23.083Z,0
2016-05-22T03:26:23.086Z,0
2016-05-22T03:27:23.791Z,0
2016-05-22T03:28:23.653Z,0
2016-05-22T03:29:23.110Z,0
2016-05-22T03:30:23.332Z,0
2016-05-22T03:31:23.210Z,0
2016-05-22T03:32:23.245Z,0
2016-05-22T03:33:23.435Z,0
2016-05-22T03:34:23.474Z,0
2016-05-22T03:35:23.488Z,0
2016-05-22T03:36:23.501Z,0
2016-05-22T03:37:23.516Z,0
2016-05-22T03:38:23.529Z,0
2016-05-22T03:39:23.540Z,0
2016-05-22T03:40:23.405Z,0
2016-05-22T03:41:23.412Z,0
2016-05-22T03:42:23.934Z,0
2016-05-22T03:43:23.551Z,0
2016-05-22T03:44:23.587Z,0
2016-05-22T03:45:23.608Z,5
2016-05-22T03:46:23.471Z,5
2016-05-22T03:47:23.460Z,5
2016-05-22T03:48:23.637Z,5
2016-05-22T03:49:23.639Z,5
2016-05-22T03:50:23.643Z,5
2016-05-22T03:51:23.646Z,5
2016-05-22T03:52:23.664Z,5
2016-05-22T03:53:23.511Z,5
2016-05-22T03:54:23.670Z,5
2016-05-22T03:55:23.673Z,5
2016-05-22T03:56:23.691Z,5
2016-05-22T03:57:23.913Z,5
2016-05-22T03:58:24.102Z,5
2016-05-22T03:59:23.699Z,5
2016-05-22T04:00:23.718Z,5
2016-05-22T04:01:23.721Z,10
2016-05-22T04:02:26.426Z,5
2016-05-22T04:03:23.726Z,5
2016-05-22T04:04:23.571Z,5
2016-05-22T04:05:23.762Z,5
2016-05-22T04:06:23.594Z,5
2016-05-22T04:07:23.752Z,5
2016-05-22T04:08:23.614Z,10
2016-05-22T04:09:23.773Z,10
2016-05-22T04:10:23.760Z,10
2016-05-22T04:11:23.779Z,10
2016-05-22T04:12:24.172Z,10
2016-05-22T04:13:24.237Z,10
2016-05-22T04:14:23.786Z,10
2016-05-22T04:15:23.804Z,10
2016-05-22T04:16:23.807Z,10
2016-05-22T04:17:23.826Z,10
2016-05-22T04:18:23.829Z,10
2016-05-22T04:19:23.832Z,10
2016-05-22T04:20:23.849Z,10
2016-05-22T04:21:23.837Z,10
2016-05-22T04:22:23.542Z,10
2016-05-22T04:23:23.873Z,10
2016-05-22T04:24:23.564Z,10
2016-05-22T04:25:23.723Z,15
2016-05-22T04:26:23.897Z,10
2016-05-22T04:27:23.728Z,10
2016-05-22T04:28:24.653Z,10
2016-05-22T04:29:23.889Z,15
2016-05-22T04:30:23.908Z,15
2016-05-22T04:31:23.941Z,15
2016-05-22T04:32:23.913Z,15
2016-05-22T04:33:23.916Z,15
2016-05-22T04:34:23.918Z,15
2016-05-22T04:35:23.640Z,15
2016-05-22T04:36:23.940Z,15
2016-05-22T04:37:23.958Z,15
2016-05-22T04:38:23.960Z,15
2016-05-22T04:39:23.791Z,15
2016-05-22T04:40:23.965Z,15
2016-05-22T04:41:23.812Z,10
2016-05-22T04:42:23.924Z,10
2016-05-22T04:43:23.818Z,10
2016-05-22T04:44:23.992Z,10
2016-05-22T04:45:23.839Z,10
2016-05-22T04:46:23.701Z,10
2016-05-22T04:47:23.844Z,10
2016-05-22T04:48:23.862Z,10
2016-05-22T04:49:24.021Z,10
2016-05-22T04:50:24.024Z,5
2016-05-22T04:51:23.870Z,5
2016-05-22T04:52:24.045Z,5
2016-05-22T04:53:24.031Z,5
2016-05-22T04:54:24.050Z,10
2016-05-22T04:55:23.897Z,10
2016-05-22T04:56:24.071Z,10
2016-05-22T04:57:24.136Z,10
2016-05-22T04:58:23.920Z,10
2016-05-22T04:59:24.127Z,10
2016-05-22T05:00:23.941Z,10
2016-05-22T05:01:24.100Z,10
2016-05-22T05:02:23.821Z,15
2016-05-22T05:03:23.965Z,15
2016-05-22T05:04:24.124Z,15
2016-05-22T05:05:23.971Z,15
2016-05-22T05:06:23.816Z,15
2016-05-22T05:07:23.976Z,20
2016-05-22T05:08:24.135Z,20
2016-05-22T05:09:24.153Z,25
2016-05-22T05:10:24.360Z,25
2016-05-22T05:11:24.018Z,30
2016-05-22T05:12:23.723Z,35
2016-05-22T05:13:23.976Z,35
2016-05-22T05:14:24.182Z,50
2016-05-22T05:15:24.184Z,40
2016-05-22T05:16:24.048Z,40
2016-05-22T05:17:24.050Z,40
2016-05-22T05:18:24.208Z,45
2016-05-22T05:19:24.211Z,50
2016-05-22T05:20:24.229Z,55
2016-05-22T05:21:24.248Z,65
2016-05-22T05:22:24.267Z,65
2016-05-22T05:23:24.254Z,235
2016-05-22T05:24:24.286Z,285
2016-05-22T05:25:24.258Z,500
2016-05-22T05:26:24.262Z,215
2016-05-22T05:27:24.295Z,95
2016-05-22T05:28:24.142Z,80
2016-05-22T05:29:24.286Z,85
2016-05-22T05:30:24.147Z,105
2016-05-22T05:31:24.305Z,140
2016-05-22T05:32:24.309Z,500
2016-05-22T05:33:24.311Z,505
2016-05-22T05:34:24.158Z,515
2016-05-22T05:35:24.317Z,465
2016-05-22T05:36:24.180Z,480
2016-05-22T05:37:24.338Z,495
2016-05-22T05:38:24.357Z,565
2016-05-22T05:39:24.359Z,675
2016-05-22T05:40:24.362Z,685
2016-05-22T05:41:24.380Z,750
2016-05-22T05:42:24.383Z,770
2016-05-22T05:43:24.120Z,730
2016-05-22T05:44:24.403Z,650
2016-05-22T05:45:24.406Z,590
2016-05-22T05:46:24.268Z,750
2016-05-22T05:47:24.426Z,765
2016-05-22T05:48:24.430Z,580
2016-05-22T05:49:24.448Z,590
2016-05-22T05:50:24.295Z,585
2016-05-22T05:51:24.156Z,520
2016-05-22T05:52:24.473Z,460
2016-05-22T05:53:24.303Z,555
2016-05-22T05:54:24.321Z,590
2016-05-22T05:55:24.495Z,620
2016-05-22T05:56:24.498Z,575
2016-05-22T05:57:24.501Z,550
2016-05-22T05:58:24.535Z,405
2016-05-22T05:59:24.366Z,270
2016-05-22T06:00:24.209Z,255
2016-05-22T06:01:24.543Z,215
2016-05-22T06:02:38.499Z,205
2016-05-22T06:03:24.594Z,160
2016-05-22T06:04:24.251Z,120
2016-05-22T06:05:24.585Z,115
2016-05-22T06:06:24.507Z,130
2016-05-22T06:07:24.588Z,115
2016-05-22T06:08:24.450Z,115
2016-05-22T06:09:24.452Z,115
2016-05-22T06:10:24.611Z,120
2016-05-22T06:11:24.630Z,110
2016-05-22T06:12:24.632Z,90
2016-05-22T06:13:25.247Z,90
2016-05-22T06:14:24.497Z,105
2016-05-22T06:15:24.485Z,125
2016-05-22T06:16:24.659Z,110
2016-05-22T06:17:24.521Z,135
2016-05-22T06:18:24.712Z,185
2016-05-22T06:19:24.543Z,215
2016-05-22T06:20:24.388Z,160
2016-05-22T06:21:24.703Z,155
2016-05-22T06:22:24.706Z,235
2016-05-22T06:23:24.709Z,315
2016-05-22T06:24:24.571Z,460
2016-05-22T06:25:24.574Z,215
2016-05-22T06:26:24.420Z,255
2016-05-22T06:27:24.735Z,570
2016-05-22T06:28:25.475Z,720
2016-05-22T06:29:24.756Z,845
2016-05-22T06:30:24.775Z,835
2016-05-22T06:31:24.653Z,925
2016-05-22T06:32:24.796Z,980
2016-05-22T06:33:24.641Z,1025
2016-05-22T06:34:24.504Z,1055
2016-05-22T06:35:24.663Z,775
2016-05-22T06:36:24.822Z,435
2016-05-22T06:37:24.825Z,310
2016-05-22T06:38:24.702Z,245
2016-05-22T06:39:24.845Z,185
2016-05-22T06:40:24.863Z,205
2016-05-22T06:41:24.710Z,225
2016-05-22T06:42:24.729Z,160
2016-05-22T06:43:25.263Z,255
2016-05-22T06:44:24.891Z,270
2016-05-22T06:45:24.909Z,285
2016-05-22T06:46:24.911Z,265
2016-05-22T06:47:24.758Z,305
2016-05-22T06:48:24.932Z,400
2016-05-22T06:49:24.935Z,280
2016-05-22T06:50:24.954Z,290
2016-05-22T06:51:24.956Z,155
2016-05-22T06:52:24.786Z,210
2016-05-22T06:53:24.976Z,120
2016-05-22T06:54:24.995Z,105
2016-05-22T06:55:24.998Z,145
2016-05-22T06:56:24.845Z,155
2016-05-22T06:57:24.691Z,210
2016-05-22T06:58:25.428Z,215
2016-05-22T06:59:25.025Z,220
2016-05-22T07:00:25.027Z,230
2016-05-22T07:01:25.031Z,175
2016-05-22T07:02:25.048Z,240
2016-05-22T07:03:25.082Z,275
2016-05-22T07:04:25.053Z,245
2016-05-22T07:05:25.072Z,200
2016-05-22T07:06:25.074Z,275
2016-05-22T07:07:25.093Z,200
2016-05-22T07:08:24.924Z,155
2016-05-22T07:09:24.786Z,150
2016-05-22T07:10:25.101Z,245
2016-05-22T07:11:24.807Z,250
2016-05-22T07:12:25.122Z,250
2016-05-22T07:13:25.577Z,210
2016-05-22T07:14:25.143Z,325
2016-05-22T07:15:25.130Z,340
2016-05-22T07:16:25.148Z,300
2016-05-22T07:17:25.166Z,505
2016-05-22T07:18:25.013Z,185
2016-05-22T07:19:25.032Z,685
2016-05-22T07:20:25.190Z,1250
2016-05-22T07:21:25.193Z,250
2016-05-22T07:22:25.227Z,685
2016-05-22T07:23:25.215Z,1165
2016-05-22T07:24:25.232Z,440
2016-05-22T07:25:25.235Z,755
2016-05-22T07:26:25.223Z,835
2016-05-22T07:27:25.240Z,890
2016-05-22T07:28:25.212Z,775
2016-05-22T07:29:25.105Z,790
2016-05-22T07:30:25.280Z,745
2016-05-22T07:31:25.126Z,665
2016-05-22T07:32:25.301Z,555
2016-05-22T07:33:25.163Z,600
2016-05-22T07:34:25.305Z,610
2016-05-22T07:35:25.168Z,385
2016-05-22T07:36:25.187Z,245
2016-05-22T07:37:25.174Z,180
2016-05-22T07:38:25.348Z,165
2016-05-22T07:39:25.194Z,155
2016-05-22T07:40:25.353Z,150
2016-05-22T07:41:25.371Z,145
2016-05-22T07:42:25.218Z,145
2016-05-22T07:43:25.377Z,140
2016-05-22T07:44:25.224Z,135
2016-05-22T07:45:25.241Z,135
2016-05-22T07:46:25.260Z,135
2016-05-22T07:47:25.418Z,140
2016-05-22T07:48:25.421Z,140
2016-05-22T07:49:25.285Z,145
2016-05-22T07:50:25.443Z,145
2016-05-22T07:51:25.445Z,145
2016-05-22T07:52:25.510Z,145
2016-05-22T07:53:25.513Z,145
2016-05-22T07:54:25.172Z,145
2016-05-22T07:55:25.473Z,145
2016-05-22T07:56:25.506Z,145
2016-05-22T07:57:25.195Z,150
2016-05-22T07:58:25.371Z,150
2016-05-22T07:59:25.201Z,145
2016-05-22T08:00:25.516Z,145
2016-05-22T08:01:25.582Z,150
2016-05-22T08:02:39.634Z,150
2016-05-22T08:03:25.603Z,145
2016-05-22T08:04:25.558Z,140
2016-05-22T08:05:25.562Z,140
2016-05-22T08:06:25.595Z,130
2016-05-22T08:07:25.566Z,135
2016-05-22T08:08:25.585Z,140
2016-05-22T08:09:25.291Z,140
2016-05-22T08:10:25.450Z,135
2016-05-22T08:11:25.453Z,135
2016-05-22T08:12:25.299Z,130
2016-05-22T08:13:25.989Z,130
2016-05-22T08:14:25.476Z,130
2016-05-22T08:15:25.651Z,130
2016-05-22T08:16:25.496Z,130
2016-05-22T08:17:25.656Z,135
2016-05-22T08:18:25.518Z,130
2016-05-22T08:19:25.662Z,135
2016-05-22T08:20:25.382Z,135
2016-05-22T08:21:25.698Z,130
2016-05-22T08:22:25.701Z,135
2016-05-22T08:23:25.719Z,130
2016-05-22T08:24:25.737Z,130
2016-05-22T08:25:25.709Z,130
2016-05-22T08:26:25.727Z,130
2016-05-22T08:27:25.604Z,130
2016-05-22T08:28:25.764Z,130
2016-05-22T08:29:25.751Z,130
2016-05-22T08:30:25.754Z,130
2016-05-22T08:31:25.772Z,130
2016-05-22T08:32:25.618Z,130
2016-05-22T08:33:25.480Z,130
2016-05-22T08:34:25.796Z,125
2016-05-22T08:35:25.642Z,125
2016-05-22T08:36:25.801Z,125
2016-05-22T08:37:25.819Z,125
2016-05-22T08:38:25.666Z,125
2016-05-22T08:39:25.855Z,125
2016-05-22T08:40:25.859Z,125
2016-05-22T08:41:25.861Z,125
2016-05-22T08:42:25.692Z,125
2016-05-22T08:43:26.210Z,125
2016-05-22T08:44:25.713Z,125
2016-05-22T08:45:25.903Z,125
2016-05-22T08:46:25.891Z,125
2016-05-22T08:47:25.893Z,125
2016-05-22T08:48:25.896Z,130
2016-05-22T08:49:25.898Z,125
2016-05-22T08:50:25.916Z,130
2016-05-22T08:51:25.919Z,130
2016-05-22T08:52:25.937Z,130
2016-05-22T08:53:25.956Z,130
2016-05-22T08:54:25.943Z,130
2016-05-22T08:55:25.962Z,120
2016-05-22T08:56:25.964Z,115
2016-05-22T08:57:25.967Z,120
2016-05-22T08:58:25.985Z,125
2016-05-22T08:59:25.987Z,125
2016-05-22T09:00:26.006Z,125
2016-05-22T09:01:25.992Z,125
2016-05-22T09:02:54.201Z,130
2016-05-22T09:03:26.014Z,130
2016-05-22T09:04:26.033Z,130
2016-05-22T09:05:26.035Z,130
2016-05-22T09:06:25.881Z,125
2016-05-22T09:07:25.884Z,125
2016-05-22T09:08:26.044Z,125
2016-05-22T09:09:26.061Z,130
2016-05-22T09:10:25.908Z,130
2016-05-22T09:11:26.083Z,130
2016-05-22T09:12:26.069Z,130
2016-05-22T09:13:26.088Z,135
2016-05-22T09:14:25.935Z,135
2016-05-22T09:15:25.938Z,135
2016-05-22T09:16:25.955Z,130
2016-05-22T09:17:26.129Z,130
2016-05-22T09:18:25.976Z,130
2016-05-22T09:19:26.166Z,130
2016-05-22T09:20:26.138Z,130
2016-05-22T09:21:26.156Z,130
2016-05-22T09:22:26.159Z,130
2016-05-22T09:23:26.193Z,130
2016-05-22T09:24:26.055Z,125
2016-05-22T09:25:26.182Z,125
2016-05-22T09:26:26.201Z,125
2016-05-22T09:27:26.032Z,125
2016-05-22T09:28:25.925Z,125
2016-05-22T09:29:26.209Z,125
2016-05-22T09:30:26.212Z,125
2016-05-22T09:31:26.231Z,125
2016-05-22T09:32:42.782Z,125
2016-05-22T09:33:26.079Z,125
2016-05-22T09:34:26.081Z,125
2016-05-22T09:35:26.100Z,125
2016-05-22T09:36:26.103Z,125
2016-05-22T09:37:26.277Z,125
2016-05-22T09:38:26.280Z,120
2016-05-22T09:39:26.283Z,120
2016-05-22T09:40:26.286Z,120
2016-05-22T09:41:26.303Z,120
2016-05-22T09:42:26.306Z,125
2016-05-22T09:43:26.231Z,125
2016-05-22T09:44:26.343Z,125
2016-05-22T09:45:26.205Z,125
2016-05-22T09:46:26.349Z,120
2016-05-22T09:47:26.352Z,115
2016-05-22T09:48:26.385Z,110
2016-05-22T09:49:26.216Z,105
2016-05-22T09:50:26.219Z,105
2016-05-22T09:51:26.080Z,105
2016-05-22T09:52:26.396Z,115
2016-05-22T09:53:26.243Z,115
2016-05-22T09:54:26.246Z,120
2016-05-22T09:55:26.248Z,125
2016-05-22T09:56:26.266Z,130
2016-05-22T09:57:26.425Z,140
2016-05-22T09:58:26.318Z,140
2016-05-22T09:59:26.462Z,140
2016-05-22T10:00:26.479Z,140
2016-05-22T10:01:26.467Z,135
2016-05-22T10:02:26.470Z,130
2016-05-22T10:03:26.331Z,130
2016-05-22T10:04:26.319Z,125
2016-05-22T10:05:26.509Z,125
2016-05-22T10:06:26.340Z,120
2016-05-22T10:07:26.499Z,120
2016-05-22T10:08:26.517Z,115
2016-05-22T10:09:26.520Z,110
2016-05-22T10:10:26.225Z,120
2016-05-22T10:11:26.525Z,125
2016-05-22T10:12:26.544Z,125
2016-05-22T10:13:27.405Z,125
2016-05-22T10:14:26.564Z,120
2016-05-22T10:15:26.599Z,120
2016-05-22T10:16:26.413Z,120
2016-05-22T10:17:26.573Z,115
2016-05-22T10:18:26.590Z,110
2016-05-22T10:19:26.594Z,110
2016-05-22T10:20:26.440Z,110
2016-05-22T10:21:26.458Z,115
2016-05-22T10:22:26.618Z,115
2016-05-22T10:23:26.479Z,120
2016-05-22T10:24:26.638Z,115
2016-05-22T10:25:26.641Z,110
2016-05-22T10:26:26.643Z,105
2016-05-22T10:27:26.662Z,105
2016-05-22T10:28:27.602Z,105
2016-05-22T10:29:26.682Z,105
2016-05-22T10:30:26.685Z,100
2016-05-22T10:31:26.562Z,100
2016-05-22T10:32:26.551Z,105
2016-05-22T10:33:26.710Z,115
2016-05-22T10:34:26.728Z,120
2016-05-22T10:35:26.559Z,115
2016-05-22T10:36:26.718Z,115
2016-05-22T10:37:26.423Z,110
2016-05-22T10:38:26.426Z,110
2016-05-22T10:39:26.741Z,105
2016-05-22T10:40:26.759Z,105
2016-05-22T10:41:26.622Z,110
2016-05-22T10:42:26.781Z,110
2016-05-22T10:43:27.017Z,120
2016-05-22T10:44:26.786Z,120
2016-05-22T10:45:26.788Z,120
2016-05-22T10:46:26.636Z,125
2016-05-22T10:47:26.809Z,135
2016-05-22T10:48:26.812Z,130
2016-05-22T10:49:26.830Z,130
2016-05-22T10:50:26.833Z,125
2016-05-22T10:51:26.836Z,115
2016-05-22T10:52:26.838Z,115
2016-05-22T10:53:26.872Z,115
2016-05-22T10:54:26.875Z,105
2016-05-22T10:55:26.863Z,100
2016-05-22T10:56:26.725Z,105
2016-05-22T10:57:26.898Z,105
2016-05-22T10:58:27.026Z,105
2016-05-22T10:59:26.810Z,100
2016-05-22T11:00:26.751Z,105
2016-05-22T11:01:26.926Z,100
2016-05-22T11:02:41.040Z,90
2016-05-22T11:03:26.759Z,90
2016-05-22T11:04:26.934Z,85
2016-05-22T11:05:26.952Z,80
2016-05-22T11:06:26.814Z,70
2016-05-22T11:07:26.972Z,65
2016-05-22T11:08:26.662Z,70
2016-05-22T11:09:26.822Z,75
2016-05-22T11:10:26.996Z,75
2016-05-22T11:11:27.000Z,70
2016-05-22T11:12:27.017Z,60
2016-05-22T11:13:27.223Z,55
2016-05-22T11:14:26.866Z,50
2016-05-22T11:15:26.713Z,50
2016-05-22T11:16:27.028Z,50
2016-05-22T11:17:27.047Z,55
2016-05-22T11:18:27.049Z,55
2016-05-22T11:19:27.067Z,55
2016-05-22T11:20:27.054Z,55
2016-05-22T11:21:27.072Z,55
2016-05-22T11:22:27.075Z,55
2016-05-22T11:23:26.953Z,55
2016-05-22T11:24:26.941Z,55
2016-05-22T11:25:26.958Z,60
2016-05-22T11:26:27.118Z,60
2016-05-22T11:27:26.964Z,60
2016-05-22T11:28:27.607Z,60
2016-05-22T11:29:27.141Z,60
2016-05-22T11:30:27.128Z,55
2016-05-22T11:31:27.146Z,60
2016-05-22T11:32:41.262Z,65
2016-05-22T11:33:27.184Z,60
2016-05-22T11:34:27.015Z,65
2016-05-22T11:35:27.032Z,70
2016-05-22T11:36:27.207Z,70
2016-05-22T11:37:27.179Z,70
2016-05-22T11:38:27.197Z,65
2016-05-22T11:39:27.231Z,60
2016-05-22T11:40:27.217Z,55
2016-05-22T11:41:27.080Z,50
2016-05-22T11:42:27.239Z,45
2016-05-22T11:43:27.336Z,40
2016-05-22T11:44:27.275Z,40
2016-05-22T11:45:27.294Z,40
2016-05-22T11:46:27.265Z,35
2016-05-22T11:47:27.268Z,35
2016-05-22T11:48:27.270Z,35
2016-05-22T11:49:27.272Z,35
2016-05-22T11:50:27.276Z,35
2016-05-22T11:51:27.138Z,35
2016-05-22T11:52:27.297Z,40
2016-05-22T11:53:27.003Z,40
2016-05-22T11:54:27.146Z,45
2016-05-22T11:55:27.321Z,50
2016-05-22T11:56:27.011Z,50
2016-05-22T11:57:27.341Z,50
2016-05-22T11:58:27.891Z,55
2016-05-22T11:59:27.190Z,50
2016-05-22T12:00:27.052Z,50
2016-05-22T12:01:27.368Z,45
2016-05-22T12:02:27.387Z,45
2016-05-22T12:03:27.390Z,45
2016-05-22T12:04:27.251Z,50
2016-05-22T12:05:27.238Z,45
2016-05-22T12:06:27.100Z,50
2016-05-22T12:07:27.243Z,55
2016-05-22T12:08:27.262Z,55
2016-05-22T12:09:27.280Z,50
2016-05-22T12:10:27.439Z,55
2016-05-22T12:11:27.442Z,60
2016-05-22T12:12:27.460Z,65
2016-05-22T12:13:27.729Z,65
2016-05-22T12:14:27.464Z,60
2016-05-22T12:15:27.468Z,60
2016-05-22T12:16:27.314Z,70
2016-05-22T12:17:27.489Z,70
2016-05-22T12:18:27.336Z,65
2016-05-22T12:19:27.494Z,70
2016-05-22T12:20:27.185Z,65
2016-05-22T12:21:27.358Z,65
2016-05-22T12:22:27.518Z,60
2016-05-22T12:23:27.208Z,60
2016-05-22T12:24:27.539Z,60
2016-05-22T12:25:27.527Z,60
2016-05-22T12:26:27.545Z,60
2016-05-22T12:27:27.407Z,60
2016-05-22T12:28:28.127Z,55
2016-05-22T12:29:27.255Z,55
2016-05-22T12:30:27.602Z,55
2016-05-22T12:31:27.589Z,60
2016-05-22T12:32:27.435Z,60
2016-05-22T12:33:27.595Z,65
2016-05-22T12:34:27.612Z,65
2016-05-22T12:35:27.631Z,65
2016-05-22T12:36:27.475Z,70
2016-05-22T12:37:27.671Z,70
2016-05-22T12:38:27.397Z,70
2016-05-22T12:39:27.716Z,70
2016-05-22T12:40:27.738Z,70
2016-05-22T12:41:27.767Z,65
2016-05-22T12:42:27.777Z,65
2016-05-22T12:43:28.600Z,65
2016-05-22T12:44:27.640Z,60
2016-05-22T12:45:27.822Z,55
2016-05-22T12:46:27.828Z,50
2016-05-22T12:47:27.834Z,45
2016-05-22T12:48:27.542Z,45
2016-05-22T12:49:27.704Z,45
2016-05-22T12:50:27.880Z,40
2016-05-22T12:51:27.729Z,40
2016-05-22T12:52:27.732Z,40
2016-05-22T12:53:27.892Z,40
2016-05-22T12:54:27.755Z,40
2016-05-22T12:55:27.899Z,40
2016-05-22T12:56:27.918Z,40
2016-05-22T12:57:27.952Z,40
2016-05-22T12:58:28.471Z,40
2016-05-22T12:59:27.943Z,35
2016-05-22T13:00:27.947Z,35
2016-05-22T13:01:27.949Z,35
2016-05-22T13:02:27.811Z,35
2016-05-22T13:03:27.970Z,35
2016-05-22T13:04:27.818Z,35
2016-05-22T13:05:27.992Z,35
2016-05-22T13:06:27.855Z,40
2016-05-22T13:07:27.857Z,45
2016-05-22T13:08:27.860Z,50
2016-05-22T13:09:28.035Z,50
2016-05-22T13:10:27.881Z,55
2016-05-22T13:11:27.883Z,60
2016-05-22T13:12:27.870Z,55
2016-05-22T13:13:28.639Z,50
2016-05-22T13:14:28.064Z,50
2016-05-22T13:15:28.051Z,45
2016-05-22T13:16:30.725Z,45
2016-05-22T13:17:28.072Z,45
2016-05-22T13:18:28.090Z,45
2016-05-22T13:19:28.092Z,45
2016-05-22T13:20:27.939Z,45
2016-05-22T13:21:28.098Z,45
2016-05-22T13:22:27.975Z,45
2016-05-22T13:23:28.119Z,45
2016-05-22T13:24:28.388Z,50
2016-05-22T13:25:28.156Z,45
2016-05-22T13:26:28.127Z,45
2016-05-22T13:27:28.145Z,40
2016-05-22T13:28:28.445Z,40
2016-05-22T13:29:28.151Z,40
2016-05-22T13:30:28.184Z,40
2016-05-22T13:31:30.500Z,40
2016-05-22T13:32:42.146Z,40
2016-05-22T13:33:28.177Z,45
2016-05-22T13:34:28.040Z,45
2016-05-22T13:35:28.198Z,50
2016-05-22T13:36:28.216Z,50
2016-05-22T13:37:28.218Z,50
2016-05-22T13:38:28.222Z,50
2016-05-22T13:39:28.084Z,50
2016-05-22T13:40:28.227Z,45
2016-05-22T13:41:28.089Z,45
2016-05-22T13:42:28.092Z,45
2016-05-22T13:43:28.579Z,50
2016-05-22T13:44:28.269Z,50
2016-05-22T13:45:28.288Z,45
2016-05-22T13:46:28.275Z,40
2016-05-22T13:47:28.153Z,35
2016-05-22T13:48:28.295Z,35
2016-05-22T13:49:28.314Z,30
2016-05-22T13:50:28.317Z,30
2016-05-22T13:51:28.319Z,35
2016-05-22T13:52:28.369Z,35
2016-05-22T13:53:28.341Z,35
2016-05-22T13:54:28.186Z,40
2016-05-22T13:55:28.346Z,40
2016-05-22T13:56:28.349Z,40
2016-05-22T13:57:28.444Z,40
2016-05-22T13:58:28.386Z,40
2016-05-22T13:59:28.372Z,40
2016-05-22T14:00:28.202Z,40
2016-05-22T14:01:28.393Z,35
2016-05-22T14:02:28.380Z,30
2016-05-22T14:03:28.413Z,25
2016-05-22T14:04:28.401Z,25
2016-05-22T14:05:28.404Z,25
2016-05-22T14:06:28.266Z,25
2016-05-22T14:07:28.440Z,25
2016-05-22T14:08:28.287Z,30
2016-05-22T14:09:28.446Z,30
2016-05-22T14:10:28.292Z,30
2016-05-22T14:11:28.139Z,25
2016-05-22T14:12:28.470Z,25